createdAt,value
2022-07-28T00:02:30.911Z,22.80
2022-07-28T00:07:33.328Z,22.90
2022-07-28T00:12:35.648Z,22.90
2022-07-28T00:17:38.448Z,23.00
2022-07-28T00:22:43.111Z,23.20
2022-07-28T00:27:45.430Z,23.40
2022-07-28T00:32:47.747Z,23.50
2022-07-28T00:37:50.236Z,23.20
2022-07-28T00:42:53.646Z,23.30
2022-07-28T00:47:55.912Z,23.50
2022-07-28T00:52:58.964Z,23.60
2022-07-28T00:58:01.696Z,23.70
2022-07-28T01:03:06.527Z,23.80
2022-07-28T01:08:20.272Z,23.90
2022-07-28T01:18:48.246Z,24.10
2022-07-28T01:24:16.976Z,24.10
2022-07-28T01:40:22.637Z,24.20
2022-07-28T01:45:26.372Z,24.10
2022-07-28T01:50:30.041Z,23.80
2022-07-28T01:55:33.917Z,23.70
2022-07-28T02:00:37.033Z,23.80
2022-07-28T02:05:42.522Z,23.40
2022-07-28T02:11:04.944Z,23.50
2022-07-28T02:16:13.901Z,23.40
2022-07-28T02:21:17.535Z,23.20
2022-07-28T02:26:26.189Z,23.20
2022-07-28T02:31:36.322Z,23.20
2022-07-28T02:36:47.478Z,23.30
2022-07-28T02:41:59.055Z,23.30
2022-07-28T02:47:04.443Z,23.30
2022-07-28T02:52:09.884Z,23.50
2022-07-28T02:57:14.612Z,23.40
2022-07-28T03:02:21.571Z,23.50
2022-07-28T03:07:24.010Z,23.50
2022-07-28T03:12:27.695Z,23.50
2022-07-28T03:17:29.984Z,23.60
2022-07-28T03:22:32.259Z,23.50
2022-07-28T03:27:40.133Z,23.50
2022-07-28T03:32:48.262Z,23.60
2022-07-28T03:37:59.478Z,23.80
2022-07-28T03:43:06.430Z,23.80
2022-07-28T03:48:08.788Z,23.80
2022-07-28T03:53:21.274Z,23.80
2022-07-28T03:58:28.613Z,23.80
2022-07-28T04:03:43.037Z,23.80
2022-07-28T04:08:46.720Z,23.90
2022-07-28T04:13:49.208Z,23.80
2022-07-28T04:18:51.447Z,23.90
2022-07-28T04:23:57.296Z,23.90
2022-07-28T04:29:03.427Z,23.80
2022-07-28T04:34:05.931Z,23.60
2022-07-28T04:39:11.141Z,23.40
2022-07-28T04:44:13.699Z,23.50
2022-07-28T04:49:16.286Z,23.50
2022-07-28T04:54:23.120Z,23.30
2022-07-28T04:59:28.552Z,23.10
2022-07-28T05:04:33.288Z,23.10
2022-07-28T05:09:37.752Z,23.00
2022-07-28T05:14:40.067Z,23.20
2022-07-28T05:19:42.342Z,23.00
2022-07-28T05:24:44.688Z,22.80
2022-07-28T05:29:48.086Z,23.00
2022-07-28T05:34:50.699Z,23.20
2022-07-28T05:39:53.047Z,23.20
2022-07-28T05:44:55.399Z,23.40
2022-07-28T05:50:02.027Z,23.40
2022-07-28T05:55:06.673Z,23.70
2022-07-28T06:00:11.903Z,23.70
2022-07-28T06:05:17.081Z,23.50
2022-07-28T06:10:22.278Z,23.30
2022-07-28T06:15:27.960Z,23.20
2022-07-28T06:20:30.319Z,23.50
2022-07-28T06:25:32.633Z,23.50
2022-07-28T06:30:34.941Z,23.60
2022-07-28T06:35:43.223Z,23.80
2022-07-28T06:40:50.506Z,23.90
2022-07-28T06:45:52.851Z,24.00
2022-07-28T06:50:56.598Z,24.20
2022-07-28T06:55:58.881Z,24.10
2022-07-28T07:01:02.770Z,24.00
2022-07-28T07:06:05.140Z,24.10
2022-07-28T07:11:07.523Z,24.30
2022-07-28T07:16:09.858Z,24.60
2022-07-28T07:21:12.150Z,24.80
2022-07-28T07:26:14.632Z,25.20
2022-07-28T07:31:17.278Z,25.60
2022-07-28T07:36:19.615Z,25.60
2022-07-28T07:41:21.926Z,26.10
2022-07-28T07:46:24.791Z,26.20
2022-07-28T07:51:27.082Z,25.90
2022-07-28T07:56:29.336Z,26.20
2022-07-28T08:01:31.645Z,26.40
2022-07-28T08:06:33.993Z,26.50
2022-07-28T08:11:38.114Z,26.40
2022-07-28T08:16:40.466Z,26.30
2022-07-28T08:21:42.809Z,25.80
2022-07-28T08:26:45.068Z,26.20
2022-07-28T08:31:47.743Z,26.30
2022-07-28T08:36:50.075Z,26.20
2022-07-28T08:41:59.361Z,25.90
2022-07-28T08:47:02.147Z,25.60
2022-07-28T08:52:05.357Z,25.00
2022-07-28T08:57:10.140Z,25.10
2022-07-28T09:02:13.200Z,25.10
2022-07-28T09:07:16.231Z,25.60
2022-07-28T09:12:18.581Z,25.80
2022-07-28T09:17:21.020Z,26.10
2022-07-28T09:22:23.466Z,26.40
2022-07-28T09:27:25.725Z,26.30
2022-07-28T09:32:28.163Z,25.80
2022-07-28T09:37:30.876Z,26.20
2022-07-28T09:42:46.785Z,26.20
2022-07-28T09:47:49.173Z,26.10
2022-07-28T09:52:51.576Z,26.10
2022-07-28T09:57:55.813Z,26.00
2022-07-28T10:02:58.357Z,25.90
2022-07-28T10:08:00.714Z,26.00
2022-07-28T10:13:06.590Z,25.80
2022-07-28T10:18:08.917Z,25.90
2022-07-28T10:23:12.864Z,26.10
2022-07-28T10:28:20.447Z,25.80
2022-07-28T10:33:24.717Z,25.50
2022-07-28T10:38:33.493Z,25.60
2022-07-28T10:43:36.864Z,25.60
2022-07-28T10:48:45.353Z,25.70
2022-07-28T10:53:55.486Z,25.80
2022-07-28T11:04:08.122Z,25.80
2022-07-28T11:14:34.051Z,26.00
2022-07-28T11:30:11.088Z,25.90
2022-07-28T11:35:13.376Z,25.40
2022-07-28T11:45:50.418Z,25.50
2022-07-28T11:56:22.519Z,25.90
2022-07-28T12:01:25.052Z,26.20
2022-07-28T12:06:39.178Z,26.30
2022-07-28T12:11:42.518Z,26.20
2022-07-28T12:16:49.612Z,26.20
2022-07-28T12:27:03.934Z,26.10
2022-07-28T12:32:10.214Z,26.40
2022-07-28T12:37:15.938Z,26.20
2022-07-28T12:42:20.255Z,26.30
2022-07-28T12:47:28.179Z,26.20
2022-07-28T12:52:30.822Z,26.10
2022-07-28T12:57:51.403Z,26.30
2022-07-28T13:02:57.784Z,26.30
2022-07-28T13:08:03.555Z,26.20
2022-07-28T13:13:08.478Z,26.30
2022-07-28T13:18:10.949Z,25.90
2022-07-28T13:23:13.236Z,25.90
2022-07-28T13:28:35.464Z,25.80
2022-07-28T13:33:37.663Z,25.60
2022-07-28T13:38:39.943Z,25.70
2022-07-28T13:43:42.215Z,25.70
2022-07-28T13:48:57.341Z,25.30
2022-07-28T13:54:01.155Z,25.60
2022-07-28T13:59:04.083Z,25.60
2022-07-28T14:04:16.659Z,25.60
2022-07-28T14:09:20.983Z,25.70
2022-07-28T14:14:25.256Z,25.40
2022-07-28T14:19:38.108Z,25.30
2022-07-28T14:24:42.505Z,25.50
2022-07-28T14:29:45.777Z,25.30
2022-07-28T14:34:48.096Z,25.10
2022-07-28T14:39:51.709Z,25.20
2022-07-28T14:44:53.982Z,25.30
2022-07-28T14:49:58.293Z,25.30
2022-07-28T14:55:00.940Z,25.10
2022-07-28T15:00:08.010Z,25.00
2022-07-28T15:05:11.388Z,24.80
2022-07-28T15:10:13.713Z,24.90
2022-07-28T15:15:15.961Z,24.70
2022-07-28T15:20:18.597Z,24.50
2022-07-28T15:25:20.989Z,24.70
2022-07-28T15:30:23.739Z,24.70
2022-07-28T15:35:26.531Z,24.70
2022-07-28T15:40:28.793Z,24.50
2022-07-28T15:45:32.666Z,24.60
2022-07-28T15:50:35.571Z,24.70
2022-07-28T15:55:37.828Z,24.70
2022-07-28T16:00:40.095Z,24.70
2022-07-28T16:05:44.142Z,24.60
2022-07-28T16:10:47.154Z,24.80
2022-07-28T16:15:49.909Z,24.90
2022-07-28T16:20:52.287Z,24.60
2022-07-28T16:25:54.654Z,24.50
2022-07-28T16:30:56.993Z,24.70
2022-07-28T16:35:59.304Z,24.60
2022-07-28T16:41:01.594Z,24.50
2022-07-28T16:46:04.105Z,24.60
2022-07-28T16:51:07.282Z,24.70
2022-07-28T16:56:09.557Z,24.80
2022-07-28T17:01:14.639Z,24.80
2022-07-28T17:06:17.273Z,24.70
2022-07-28T17:11:19.607Z,24.70
2022-07-28T17:16:22.006Z,24.80
2022-07-28T17:21:25.766Z,24.90
2022-07-28T17:39:53.565Z,25.00
2022-07-28T17:44:59.452Z,25.40
2022-07-28T17:50:01.738Z,25.40
2022-07-28T17:55:24.308Z,25.40
2022-07-28T18:00:26.642Z,25.40
2022-07-28T18:19:25.793Z,25.10
2022-07-28T18:24:28.925Z,25.10
2022-07-28T18:29:37.838Z,24.90
2022-07-28T18:34:41.740Z,25.00
2022-07-28T18:39:44.039Z,25.00
2022-07-28T18:44:46.309Z,25.00
2022-07-28T18:49:48.599Z,25.00
2022-07-28T18:54:51.984Z,25.00
2022-07-28T18:59:54.376Z,24.80
2022-07-28T19:04:57.755Z,24.90
2022-07-28T19:10:01.059Z,24.80
2022-07-28T19:15:03.507Z,24.90
2022-07-28T19:20:11.714Z,24.90
2022-07-28T19:25:14.016Z,24.90
2022-07-28T19:30:17.316Z,24.80
2022-07-28T19:35:19.678Z,24.70
2022-07-28T19:40:21.948Z,24.70
2022-07-28T19:45:24.761Z,24.80
2022-07-28T19:50:27.184Z,24.70
2022-07-28T19:55:32.335Z,24.90
2022-07-28T20:00:34.692Z,24.90
2022-07-28T20:05:37.110Z,24.90
2022-07-28T20:10:39.390Z,24.90
2022-07-28T20:15:42.248Z,24.70
2022-07-28T20:20:44.861Z,24.60
2022-07-28T20:25:47.215Z,24.70
2022-07-28T20:30:49.630Z,24.70
2022-07-28T20:35:53.226Z,24.70
2022-07-28T20:40:55.574Z,24.60
2022-07-28T20:45:57.922Z,24.60
2022-07-28T20:51:00.434Z,24.60
2022-07-28T20:56:02.710Z,24.70
2022-07-28T21:01:05.015Z,24.80
2022-07-28T21:06:07.333Z,24.80
2022-07-28T21:11:11.524Z,24.70
2022-07-28T21:16:16.778Z,24.60
2022-07-28T21:21:19.135Z,24.60
2022-07-28T21:26:21.526Z,24.50
2022-07-28T21:31:24.298Z,24.60
2022-07-28T21:36:26.600Z,24.60
2022-07-28T21:41:36.325Z,24.70
2022-07-28T21:46:39.778Z,24.70
2022-07-28T21:51:42.329Z,24.70
2022-07-28T21:56:46.158Z,24.70
2022-07-28T22:01:48.611Z,24.70
2022-07-28T22:06:51.014Z,24.70
2022-07-28T22:11:53.864Z,24.70
2022-07-28T22:16:56.153Z,24.60
2022-07-28T22:21:59.352Z,24.60
2022-07-28T22:27:01.637Z,24.60
2022-07-28T22:32:04.428Z,24.60
2022-07-28T22:37:12.886Z,24.60
2022-07-28T22:42:15.600Z,24.50
2022-07-28T22:47:17.956Z,24.50
2022-07-28T22:52:24.043Z,24.50
2022-07-28T22:57:26.353Z,24.50
2022-07-28T23:02:28.620Z,24.30
2022-07-28T23:07:51.242Z,24.30
2022-07-28T23:12:56.167Z,24.30
2022-07-28T23:18:01.065Z,24.20
2022-07-28T23:23:05.450Z,24.10
2022-07-28T23:28:08.503Z,24.10
2022-07-28T23:33:54.204Z,24.10
2022-07-28T23:38:32.986Z,24.10
2022-07-28T23:43:35.237Z,24.10
2022-07-28T23:48:37.541Z,24.10
2022-07-28T23:53:41.317Z,24.00
2022-07-28T23:58:43.702Z,24.10
